createdAt,value
2018-09-01T00:00:59.474Z,1.37
2018-09-01T00:06:03.235Z,1.22
2018-09-01T00:11:07.222Z,1.40
2018-09-01T00:16:10.670Z,1.37
2018-09-01T00:21:14.349Z,1.50
2018-09-01T00:26:17.829Z,1.12
2018-09-01T00:31:21.449Z,1.27
2018-09-01T00:36:25.121Z,1.37
2018-09-01T00:41:28.603Z,1.30
2018-09-01T00:46:32.666Z,1.20
2018-09-01T00:51:36.113Z,1.32
2018-09-01T00:56:39.540Z,1.47
2018-09-01T01:01:43.007Z,1.40
2018-09-01T01:06:46.463Z,1.40
2018-09-01T01:11:49.971Z,1.32
2018-09-01T01:16:53.408Z,0.95
2018-09-01T01:21:56.907Z,1.10
2018-09-01T01:27:00.549Z,1.70
2018-09-01T01:32:04.284Z,1.17
2018-09-01T01:37:07.717Z,1.50
2018-09-01T01:42:11.414Z,1.85
2018-09-01T01:47:14.963Z,1.10
2018-09-01T01:52:18.568Z,1.40
2018-09-01T01:57:22.122Z,1.42
2018-09-01T02:02:25.703Z,1.27
2018-09-01T02:07:29.273Z,1.20
2018-09-01T02:12:33.027Z,1.30
2018-09-01T02:17:36.747Z,1.30
2018-09-01T02:22:40.278Z,1.25
2018-09-01T02:27:43.732Z,1.30
2018-09-01T02:32:47.242Z,1.10
2018-09-01T02:37:50.663Z,1.12
2018-09-01T02:42:54.313Z,1.37
2018-09-01T02:47:57.848Z,0.93
2018-09-01T02:53:01.372Z,1.55
2018-09-01T02:58:05.113Z,1.60
2018-09-01T03:03:08.574Z,1.12
2018-09-01T03:08:12.089Z,1.10
2018-09-01T03:13:15.570Z,1.20
2018-09-01T03:18:19.233Z,1.60
2018-09-01T03:23:22.865Z,1.30
2018-09-01T03:28:26.332Z,0.80
2018-09-01T03:33:29.849Z,1.70
2018-09-01T03:38:33.587Z,0.85
2018-09-01T03:43:37.098Z,1.12
2018-09-01T03:48:41.326Z,0.98
2018-09-01T03:53:44.998Z,1.37
2018-09-01T03:58:48.677Z,1.37
2018-09-01T04:03:52.368Z,1.72
2018-09-01T04:08:55.843Z,1.62
2018-09-01T04:13:59.552Z,1.57
2018-09-01T04:19:09.081Z,1.10
2018-09-01T04:24:12.945Z,1.55
2018-09-01T04:29:17.236Z,1.52
2018-09-01T04:34:20.866Z,1.20
2018-09-01T04:39:24.361Z,1.40
2018-09-01T04:44:27.907Z,1.55
2018-09-01T04:49:31.422Z,1.52
2018-09-01T04:54:35.098Z,1.30
2018-09-01T04:59:38.657Z,1.37
2018-09-01T05:04:42.336Z,1.27
2018-09-01T05:09:45.825Z,1.72
2018-09-01T05:14:49.249Z,1.35
2018-09-01T05:19:52.732Z,1.22
2018-09-01T05:24:56.210Z,1.50
2018-09-01T05:29:59.673Z,1.30
2018-09-01T05:35:03.161Z,1.27
2018-09-01T05:40:08.109Z,1.60
2018-09-01T05:45:11.604Z,1.45
2018-09-01T05:50:15.078Z,1.33
2018-09-01T05:55:18.722Z,1.15
2018-09-01T06:00:23.373Z,1.32
2018-09-01T06:05:27.011Z,1.40
2018-09-01T06:10:30.474Z,1.22
2018-09-01T06:15:33.901Z,1.25
2018-09-01T06:20:37.348Z,1.10
2018-09-01T06:25:40.839Z,0.93
2018-09-01T06:30:47.207Z,1.90
2018-09-01T06:35:50.689Z,1.05
2018-09-01T06:40:54.181Z,1.15
2018-09-01T06:45:57.643Z,1.37
2018-09-01T06:51:01.153Z,1.35
2018-09-01T06:56:04.676Z,1.37
2018-09-01T07:01:08.192Z,1.20
2018-09-01T07:06:11.646Z,1.20
2018-09-01T07:11:15.294Z,1.00
2018-09-01T07:16:18.780Z,1.27
2018-09-01T07:21:22.432Z,1.30
2018-09-01T07:26:25.873Z,1.20
2018-09-01T07:31:29.639Z,1.22
2018-09-01T07:36:33.229Z,1.37
2018-09-01T07:41:37.346Z,1.42
2018-09-01T07:46:40.965Z,1.50
2018-09-01T07:51:44.518Z,1.20
2018-09-01T07:56:47.940Z,1.20
2018-09-01T08:01:51.543Z,1.20
2018-09-01T08:06:54.985Z,1.20
2018-09-01T08:11:58.558Z,1.35
2018-09-01T08:17:02.445Z,1.40
2018-09-01T08:22:06.182Z,1.07
2018-09-01T08:27:09.609Z,1.20
2018-09-01T08:32:13.340Z,2.25
2018-09-01T08:37:16.790Z,1.87
2018-09-01T08:42:20.439Z,2.10
2018-09-01T08:47:24.193Z,2.25
2018-09-01T08:52:27.793Z,1.80
2018-09-01T08:57:31.323Z,1.90
2018-09-01T09:02:34.769Z,2.08
2018-09-01T09:07:38.445Z,1.90
2018-09-01T09:12:42.147Z,1.42
2018-09-01T09:17:45.648Z,2.15
2018-09-01T09:22:49.138Z,1.50
2018-09-01T09:27:52.920Z,2.17
2018-09-01T09:32:56.584Z,1.65
2018-09-01T09:38:00.008Z,1.90
2018-09-01T09:43:03.472Z,1.57
2018-09-01T09:48:06.945Z,1.30
2018-09-01T09:53:10.704Z,1.37
2018-09-01T09:58:14.413Z,1.57
2018-09-01T10:03:17.965Z,1.70
2018-09-01T10:08:21.531Z,1.87
2018-09-01T10:13:24.975Z,1.57
2018-09-01T10:18:28.603Z,1.15
2018-09-01T10:23:32.077Z,1.50
2018-09-01T10:28:35.482Z,1.60
2018-09-01T10:33:38.889Z,2.10
2018-09-01T10:38:42.569Z,1.30
2018-09-01T10:43:46.162Z,1.37
2018-09-01T10:48:49.596Z,1.55
2018-09-01T10:53:53.135Z,1.65
2018-09-01T10:58:57.095Z,1.47
2018-09-01T11:04:00.865Z,1.50
2018-09-01T11:09:06.345Z,1.62
2018-09-01T11:14:09.885Z,1.40
2018-09-01T11:19:13.400Z,1.82
2018-09-01T11:24:17.159Z,1.57
2018-09-01T11:29:20.782Z,1.27
2018-09-01T11:34:24.298Z,1.40
2018-09-01T11:39:27.833Z,1.50
2018-09-01T11:44:31.267Z,1.22
2018-09-01T11:49:34.907Z,1.30
2018-09-01T11:54:38.443Z,1.20
2018-09-01T11:59:42.576Z,1.22
2018-09-01T12:04:46.605Z,1.52
2018-09-01T12:09:50.039Z,1.60
2018-09-01T12:14:53.477Z,1.17
2018-09-01T12:19:57.581Z,1.30
2018-09-01T12:25:01.088Z,1.30
2018-09-01T12:30:04.726Z,1.72
2018-09-01T12:35:08.402Z,1.30
2018-09-01T12:40:11.832Z,0.98
2018-09-01T12:45:15.405Z,0.88
2018-09-01T12:50:18.859Z,0.70
2018-09-01T12:55:22.388Z,1.13
2018-09-01T13:00:25.892Z,1.20
2018-09-01T13:05:29.337Z,1.17
2018-09-01T13:10:33.027Z,1.05
2018-09-01T13:15:36.533Z,1.13
2018-09-01T13:20:40.132Z,1.10
2018-09-01T13:25:43.562Z,0.87
2018-09-01T13:30:46.972Z,1.02
2018-09-01T13:35:50.670Z,1.40
2018-09-01T13:40:54.198Z,1.27
2018-09-01T13:45:57.885Z,0.93
2018-09-01T13:51:01.332Z,1.30
2018-09-01T13:56:05.092Z,1.50
2018-09-01T14:01:08.622Z,1.05
2018-09-01T14:06:12.244Z,1.00
2018-09-01T14:11:15.810Z,1.50
2018-09-01T14:16:19.321Z,0.80
2018-09-01T14:21:22.773Z,1.27
2018-09-01T14:26:26.552Z,1.17
2018-09-01T14:31:30.452Z,1.12
2018-09-01T14:36:34.195Z,1.27
2018-09-01T14:41:37.731Z,1.20
2018-09-01T14:46:41.431Z,1.20
2018-09-01T14:51:45.357Z,1.15
2018-09-01T14:56:48.798Z,1.15
2018-09-01T15:01:52.427Z,1.20
2018-09-01T15:06:56.186Z,1.10
2018-09-01T15:11:59.886Z,1.40
2018-09-01T15:17:03.336Z,1.17
2018-09-01T15:22:06.862Z,1.27
2018-09-01T15:27:10.358Z,1.30
2018-09-01T15:32:13.845Z,1.00
2018-09-01T15:37:17.296Z,1.22
2018-09-01T15:42:20.766Z,1.30
2018-09-01T15:47:24.222Z,1.35
2018-09-01T15:52:27.720Z,1.50
2018-09-01T15:57:31.161Z,1.65
2018-09-01T16:02:34.682Z,1.30
2018-09-01T16:07:38.387Z,1.35
2018-09-01T16:12:42.215Z,2.15
2018-09-01T16:17:45.707Z,1.80
2018-09-01T16:22:49.554Z,1.50
2018-09-01T16:27:53.565Z,1.20
2018-09-01T16:32:57.188Z,1.72
2018-09-01T16:38:00.717Z,1.40
2018-09-01T16:43:04.149Z,1.52
2018-09-01T16:48:07.853Z,1.30
2018-09-01T16:53:11.458Z,1.40
2018-09-01T16:58:15.231Z,1.62
2018-09-01T17:03:19.392Z,1.30
2018-09-01T17:08:23.652Z,1.32
2018-09-01T17:13:27.472Z,1.90
2018-09-01T17:18:31.256Z,1.37
2018-09-01T17:23:34.853Z,1.52
2018-09-01T17:28:38.390Z,1.45
2018-09-01T17:33:42.524Z,1.67
2018-09-01T17:38:46.072Z,2.27
2018-09-01T17:43:49.533Z,1.57
2018-09-01T17:48:53.298Z,1.85
2018-09-01T17:53:57.001Z,2.83
2018-09-01T17:59:00.455Z,2.30
2018-09-01T18:04:04.011Z,2.20
2018-09-01T18:09:08.297Z,2.35
2018-09-01T18:14:11.739Z,2.47
2018-09-01T18:19:15.420Z,2.33
2018-09-01T18:24:19.140Z,2.25
2018-09-01T18:29:22.867Z,1.95
2018-09-01T18:34:26.557Z,2.10
2018-09-01T18:39:30.229Z,1.85
2018-09-01T18:44:35.269Z,2.07
2018-09-01T18:49:38.926Z,2.62
2018-09-01T18:54:42.659Z,2.33
2018-09-01T18:59:46.203Z,2.05
2018-09-01T19:04:50.159Z,2.45
2018-09-01T19:09:55.351Z,2.30
2018-09-01T19:14:59.052Z,2.20
2018-09-01T19:20:02.785Z,2.22
2018-09-01T19:25:06.934Z,2.35
2018-09-01T19:30:10.884Z,2.87
2018-09-01T19:35:14.363Z,2.25
2018-09-01T19:40:17.877Z,1.90
2018-09-01T19:45:21.854Z,2.65
2018-09-01T19:50:25.556Z,2.60
2018-09-01T19:55:29.220Z,2.00
2018-09-01T20:00:33.916Z,2.37
2018-09-01T20:05:37.652Z,2.47
2018-09-01T20:10:41.165Z,2.77
2018-09-01T20:15:44.771Z,2.85
2018-09-01T20:20:48.224Z,2.52
2018-09-01T20:25:52.331Z,2.25
2018-09-01T20:30:55.865Z,2.22
2018-09-01T20:35:59.676Z,2.35
2018-09-01T20:41:03.265Z,3.00
2018-09-01T20:46:08.049Z,2.90
2018-09-01T20:51:11.561Z,2.65
2018-09-01T20:56:15.238Z,2.60
2018-09-01T21:01:18.768Z,2.37
2018-09-01T21:06:24.898Z,2.98
2018-09-01T21:11:30.286Z,2.33
2018-09-01T21:16:34.069Z,2.40
2018-09-01T21:21:37.484Z,3.02
2018-09-01T21:26:40.936Z,2.77
2018-09-01T21:31:44.449Z,2.17
2018-09-01T21:36:47.913Z,2.65
2018-09-01T21:41:51.349Z,2.08
2018-09-01T21:46:54.954Z,2.22
2018-09-01T21:51:58.433Z,2.58
2018-09-01T21:57:02.060Z,2.37
2018-09-01T22:02:10.802Z,1.90
2018-09-01T22:07:14.260Z,2.22
2018-09-01T22:12:18.198Z,2.08
2018-09-01T22:17:22.513Z,2.33
2018-09-01T22:22:26.025Z,2.72
2018-09-01T22:27:29.589Z,2.70
2018-09-01T22:32:33.044Z,2.70
2018-09-01T22:37:36.586Z,2.47
2018-09-01T22:42:40.080Z,2.20
2018-09-01T22:47:43.537Z,2.00
2018-09-01T22:52:47.039Z,2.50
2018-09-01T22:57:50.533Z,2.25
2018-09-01T23:02:54.090Z,2.47
2018-09-01T23:07:57.589Z,2.33
2018-09-01T23:13:01.079Z,2.17
2018-09-01T23:18:04.723Z,2.70
2018-09-01T23:23:08.749Z,2.40
2018-09-01T23:28:12.178Z,2.83
2018-09-01T23:33:15.817Z,2.52
2018-09-01T23:38:19.487Z,2.98
2018-09-01T23:43:22.909Z,2.83
2018-09-01T23:48:26.370Z,2.87
2018-09-01T23:53:29.814Z,3.02
2018-09-01T23:58:33.254Z,2.87
